sensor_id;sensor_type;location;lat;lon;timestamp;P1;durP1;ratioP1;P2;durP2;ratioP2
14992;SDS011;7592;51.088;13.732;2022-07-18T00:03:56;3.20;;;1.87;;
14992;SDS011;7592;51.088;13.732;2022-07-18T00:08:56;2.43;;;1.50;;
14992;SDS011;7592;51.088;13.732;2022-07-18T00:14:01;2.70;;;1.43;;
14992;SDS011;7592;51.088;13.732;2022-07-18T01:51:22;1.60;;;1.27;;
14992;SDS011;7592;51.088;13.732;2022-07-18T01:56:14;1.50;;;1.20;;
14992;SDS011;7592;51.088;13.732;2022-07-18T02:01:06;2.60;;;1.83;;
14992;SDS011;7592;51.088;13.732;2022-07-18T02:05:59;1.87;;;1.57;;
14992;SDS011;7592;51.088;13.732;2022-07-18T02:10:51;3.43;;;1.57;;
14992;SDS011;7592;51.088;13.732;2022-07-18T02:15:43;3.07;;;1.53;;
14992;SDS011;7592;51.088;13.732;2022-07-18T02:20:35;1.73;;;1.33;;
14992;SDS011;7592;51.088;13.732;2022-07-18T02:25:27;3.17;;;1.40;;
14992;SDS011;7592;51.088;13.732;2022-07-18T02:30:20;2.93;;;1.90;;
14992;SDS011;7592;51.088;13.732;2022-07-18T02:35:13;2.97;;;1.87;;
14992;SDS011;7592;51.088;13.732;2022-07-18T02:40:06;3.97;;;2.03;;
14992;SDS011;7592;51.088;13.732;2022-07-18T02:44:59;2.97;;;2.67;;
14992;SDS011;7592;51.088;13.732;2022-07-18T02:49:51;3.23;;;2.40;;
14992;SDS011;7592;51.088;13.732;2022-07-18T02:54:43;3.20;;;2.43;;
14992;SDS011;7592;51.088;13.732;2022-07-18T02:59:36;3.37;;;2.70;;
14992;SDS011;7592;51.088;13.732;2022-07-18T03:04:28;5.63;;;2.93;;
14992;SDS011;7592;51.088;13.732;2022-07-18T03:09:20;2.53;;;2.23;;
14992;SDS011;7592;51.088;13.732;2022-07-18T03:14:12;4.03;;;3.50;;
14992;SDS011;7592;51.088;13.732;2022-07-18T03:19:05;4.60;;;3.10;;
14992;SDS011;7592;51.088;13.732;2022-07-18T03:23:57;3.97;;;2.93;;
14992;SDS011;7592;51.088;13.732;2022-07-18T03:28:49;5.37;;;3.70;;
14992;SDS011;7592;51.088;13.732;2022-07-18T03:33:41;9.23;;;4.87;;
14992;SDS011;7592;51.088;13.732;2022-07-18T03:38:33;5.50;;;4.90;;
14992;SDS011;7592;51.088;13.732;2022-07-18T03:43:27;6.37;;;4.53;;
14992;SDS011;7592;51.088;13.732;2022-07-18T03:48:19;4.87;;;4.00;;
14992;SDS011;7592;51.088;13.732;2022-07-18T03:53:11;9.47;;;5.40;;
14992;SDS011;7592;51.088;13.732;2022-07-18T03:58:03;5.67;;;4.73;;
14992;SDS011;7592;51.088;13.732;2022-07-18T04:02:55;8.70;;;6.27;;
14992;SDS011;7592;51.088;13.732;2022-07-18T04:07:55;13.97;;;6.93;;
14992;SDS011;7592;51.088;13.732;2022-07-18T04:12:51;10.53;;;6.93;;
14992;SDS011;7592;51.088;13.732;2022-07-18T04:17:44;9.93;;;5.90;;
14992;SDS011;7592;51.088;13.732;2022-07-18T04:22:46;12.90;;;6.60;;
14992;SDS011;7592;51.088;13.732;2022-07-18T04:27:42;10.53;;;6.50;;
14992;SDS011;7592;51.088;13.732;2022-07-18T04:32:34;18.43;;;7.40;;
14992;SDS011;7592;51.088;13.732;2022-07-18T04:37:26;11.80;;;6.10;;
14992;SDS011;7592;51.088;13.732;2022-07-18T04:42:21;10.00;;;6.10;;
14992;SDS011;7592;51.088;13.732;2022-07-18T04:47:14;12.23;;;6.40;;
14992;SDS011;7592;51.088;13.732;2022-07-18T04:52:06;9.63;;;5.90;;
14992;SDS011;7592;51.088;13.732;2022-07-18T04:56:58;8.73;;;6.10;;
14992;SDS011;7592;51.088;13.732;2022-07-18T05:01:50;10.07;;;6.30;;
14992;SDS011;7592;51.088;13.732;2022-07-18T05:06:42;14.10;;;9.03;;
14992;SDS011;7592;51.088;13.732;2022-07-18T05:11:34;9.07;;;6.43;;
14992;SDS011;7592;51.088;13.732;2022-07-18T05:16:27;7.50;;;5.30;;
14992;SDS011;7592;51.088;13.732;2022-07-18T05:21:19;7.57;;;5.85;;
14992;SDS011;7592;51.088;13.732;2022-07-18T05:26:12;7.07;;;5.18;;
14992;SDS011;7592;51.088;13.732;2022-07-18T05:31:04;11.77;;;5.28;;
14992;SDS011;7592;51.088;13.732;2022-07-18T05:35:57;6.05;;;4.82;;
14992;SDS011;7592;51.088;13.732;2022-07-18T05:40:49;4.40;;;4.00;;
14992;SDS011;7592;51.088;13.732;2022-07-18T05:45:41;7.03;;;4.50;;
14992;SDS011;7592;51.088;13.732;2022-07-18T05:50:33;4.13;;;3.63;;
14992;SDS011;7592;51.088;13.732;2022-07-18T05:55:26;7.35;;;4.20;;
14992;SDS011;7592;51.088;13.732;2022-07-18T06:00:18;7.05;;;4.03;;
14992;SDS011;7592;51.088;13.732;2022-07-18T06:05:11;7.25;;;3.45;;
14992;SDS011;7592;51.088;13.732;2022-07-18T06:10:15;5.78;;;3.10;;
14992;SDS011;7592;51.088;13.732;2022-07-18T06:15:07;6.70;;;2.95;;
14992;SDS011;7592;51.088;13.732;2022-07-18T06:20:00;6.63;;;3.33;;
14992;SDS011;7592;51.088;13.732;2022-07-18T06:24:52;4.68;;;4.22;;
14992;SDS011;7592;51.088;13.732;2022-07-18T06:29:44;6.25;;;3.40;;
14992;SDS011;7592;51.088;13.732;2022-07-18T06:34:36;4.70;;;2.95;;
14992;SDS011;7592;51.088;13.732;2022-07-18T06:39:29;4.85;;;2.45;;
14992;SDS011;7592;51.088;13.732;2022-07-18T06:44:24;6.20;;;2.78;;
14992;SDS011;7592;51.088;13.732;2022-07-18T06:49:16;4.78;;;4.03;;
14992;SDS011;7592;51.088;13.732;2022-07-18T06:54:10;5.03;;;2.33;;
14992;SDS011;7592;51.088;13.732;2022-07-18T06:59:10;3.67;;;2.17;;
14992;SDS011;7592;51.088;13.732;2022-07-18T07:04:03;3.25;;;2.33;;
14992;SDS011;7592;51.088;13.732;2022-07-18T07:08:55;3.85;;;2.28;;
14992;SDS011;7592;51.088;13.732;2022-07-18T07:13:50;3.42;;;2.05;;
14992;SDS011;7592;51.088;13.732;2022-07-18T07:18:43;2.45;;;1.88;;
14992;SDS011;7592;51.088;13.732;2022-07-18T07:23:36;3.00;;;1.83;;
14992;SDS011;7592;51.088;13.732;2022-07-18T07:28:29;4.15;;;1.45;;
14992;SDS011;7592;51.088;13.732;2022-07-18T07:33:22;5.07;;;2.70;;
14992;SDS011;7592;51.088;13.732;2022-07-18T07:38:14;3.35;;;2.10;;
14992;SDS011;7592;51.088;13.732;2022-07-18T07:43:11;2.72;;;1.73;;
14992;SDS011;7592;51.088;13.732;2022-07-18T07:48:05;2.05;;;1.63;;
14992;SDS011;7592;51.088;13.732;2022-07-18T07:52:58;2.67;;;1.70;;
14992;SDS011;7592;51.088;13.732;2022-07-18T07:57:52;2.78;;;1.73;;
14992;SDS011;7592;51.088;13.732;2022-07-18T08:07:55;2.95;;;1.63;;
14992;SDS011;7592;51.088;13.732;2022-07-18T08:12:52;2.13;;;1.50;;
14992;SDS011;7592;51.088;13.732;2022-07-18T08:17:45;2.08;;;1.40;;
14992;SDS011;7592;51.088;13.732;2022-07-18T08:22:54;4.40;;;1.70;;
14992;SDS011;7592;51.088;13.732;2022-07-18T08:27:50;3.47;;;1.67;;
14992;SDS011;7592;51.088;13.732;2022-07-18T08:32:42;1.70;;;1.40;;
14992;SDS011;7592;51.088;13.732;2022-07-18T08:37:35;3.40;;;1.30;;
14992;SDS011;7592;51.088;13.732;2022-07-18T08:42:28;3.55;;;1.42;;
14992;SDS011;7592;51.088;13.732;2022-07-18T08:47:24;3.10;;;1.48;;
14992;SDS011;7592;51.088;13.732;2022-07-18T08:52:21;4.15;;;1.33;;
14992;SDS011;7592;51.088;13.732;2022-07-18T08:57:34;2.90;;;1.58;;
14992;SDS011;7592;51.088;13.732;2022-07-18T09:02:27;2.20;;;1.50;;
14992;SDS011;7592;51.088;13.732;2022-07-18T09:07:24;3.42;;;1.63;;
14992;SDS011;7592;51.088;13.732;2022-07-18T09:12:27;2.00;;;1.63;;
14992;SDS011;7592;51.088;13.732;2022-07-18T09:17:27;4.35;;;2.17;;
14992;SDS011;7592;51.088;13.732;2022-07-18T09:22:23;3.38;;;2.08;;
14992;SDS011;7592;51.088;13.732;2022-07-18T09:27:27;3.30;;;2.28;;
14992;SDS011;7592;51.088;13.732;2022-07-18T09:32:24;3.42;;;1.88;;
14992;SDS011;7592;51.088;13.732;2022-07-18T09:37:20;3.17;;;1.90;;
14992;SDS011;7592;51.088;13.732;2022-07-18T09:42:17;2.83;;;2.08;;
14992;SDS011;7592;51.088;13.732;2022-07-18T09:47:10;2.13;;;1.92;;
14992;SDS011;7592;51.088;13.732;2022-07-18T09:52:04;5.43;;;2.10;;
14992;SDS011;7592;51.088;13.732;2022-07-18T09:56:58;3.63;;;2.05;;
14992;SDS011;7592;51.088;13.732;2022-07-18T10:01:51;2.13;;;1.92;;
14992;SDS011;7592;51.088;13.732;2022-07-18T10:06:44;1.88;;;1.77;;
14992;SDS011;7592;51.088;13.732;2022-07-18T10:11:37;2.40;;;2.20;;
14992;SDS011;7592;51.088;13.732;2022-07-18T10:16:30;2.03;;;1.90;;
14992;SDS011;7592;51.088;13.732;2022-07-18T10:21:23;3.78;;;2.25;;
14992;SDS011;7592;51.088;13.732;2022-07-18T10:31:15;3.90;;;2.13;;
14992;SDS011;7592;51.088;13.732;2022-07-18T10:36:09;2.70;;;1.90;;
14992;SDS011;7592;51.088;13.732;2022-07-18T10:41:11;3.13;;;1.90;;
14992;SDS011;7592;51.088;13.732;2022-07-18T10:46:05;2.30;;;1.90;;
14992;SDS011;7592;51.088;13.732;2022-07-18T10:51:10;2.40;;;1.63;;
14992;SDS011;7592;51.088;13.732;2022-07-18T10:56:04;2.97;;;1.48;;
14992;SDS011;7592;51.088;13.732;2022-07-18T11:00:59;3.10;;;1.83;;
14992;SDS011;7592;51.088;13.732;2022-07-18T11:05:58;2.58;;;1.73;;
14992;SDS011;7592;51.088;13.732;2022-07-18T11:15:55;6.15;;;1.75;;
14992;SDS011;7592;51.088;13.732;2022-07-18T11:20:57;2.25;;;1.35;;
14992;SDS011;7592;51.088;13.732;2022-07-18T11:25:52;1.40;;;1.10;;
14992;SDS011;7592;51.088;13.732;2022-07-18T11:31:00;1.73;;;1.50;;
14992;SDS011;7592;51.088;13.732;2022-07-18T11:40:58;1.85;;;1.60;;
14992;SDS011;7592;51.088;13.732;2022-07-18T11:46:07;2.35;;;1.48;;
14992;SDS011;7592;51.088;13.732;2022-07-18T11:51:10;3.53;;;1.63;;
14992;SDS011;7592;51.088;13.732;2022-07-18T11:56:07;4.78;;;1.80;;
14992;SDS011;7592;51.088;13.732;2022-07-18T12:00:59;4.25;;;1.30;;
14992;SDS011;7592;51.088;13.732;2022-07-18T12:05:54;4.00;;;2.20;;
14992;SDS011;7592;51.088;13.732;2022-07-18T12:11:07;1.90;;;1.35;;
14992;SDS011;7592;51.088;13.732;2022-07-18T12:16:06;3.80;;;1.35;;
14992;SDS011;7592;51.088;13.732;2022-07-18T12:21:06;3.38;;;1.50;;
14992;SDS011;7592;51.088;13.732;2022-07-18T12:26:00;4.47;;;1.52;;
14992;SDS011;7592;51.088;13.732;2022-07-18T12:30:56;2.63;;;2.10;;
14992;SDS011;7592;51.088;13.732;2022-07-18T12:35:58;3.88;;;1.90;;
14992;SDS011;7592;51.088;13.732;2022-07-18T12:45:54;2.35;;;1.17;;
14992;SDS011;7592;51.088;13.732;2022-07-18T12:50:58;2.55;;;1.30;;
14992;SDS011;7592;51.088;13.732;2022-07-18T12:55:56;1.75;;;1.50;;
14992;SDS011;7592;51.088;13.732;2022-07-18T13:00:49;1.70;;;1.38;;
14992;SDS011;7592;51.088;13.732;2022-07-18T13:05:42;3.08;;;1.35;;
14992;SDS011;7592;51.088;13.732;2022-07-18T13:10:35;1.60;;;1.50;;
14992;SDS011;7592;51.088;13.732;2022-07-18T13:15:29;32.05;;;3.55;;
14992;SDS011;7592;51.088;13.732;2022-07-18T13:20:22;3.17;;;1.42;;
14992;SDS011;7592;51.088;13.732;2022-07-18T13:25:15;1.20;;;1.10;;
14992;SDS011;7592;51.088;13.732;2022-07-18T13:30:12;1.67;;;1.58;;
14992;SDS011;7592;51.088;13.732;2022-07-18T13:35:08;1.85;;;1.40;;
14992;SDS011;7592;51.088;13.732;2022-07-18T13:40:01;1.58;;;1.27;;
14992;SDS011;7592;51.088;13.732;2022-07-18T13:45:01;2.30;;;1.45;;
14992;SDS011;7592;51.088;13.732;2022-07-18T13:49:56;3.97;;;2.35;;
14992;SDS011;7592;51.088;13.732;2022-07-18T13:54:48;1.77;;;1.52;;
14992;SDS011;7592;51.088;13.732;2022-07-18T13:59:42;2.63;;;1.60;;
14992;SDS011;7592;51.088;13.732;2022-07-18T14:04:34;4.75;;;1.50;;
14992;SDS011;7592;51.088;13.732;2022-07-18T14:09:47;65.10;;;7.72;;
14992;SDS011;7592;51.088;13.732;2022-07-18T14:14:49;2.40;;;2.00;;
14992;SDS011;7592;51.088;13.732;2022-07-18T14:19:42;3.22;;;2.63;;
14992;SDS011;7592;51.088;13.732;2022-07-18T14:24:34;1.70;;;1.60;;
14992;SDS011;7592;51.088;13.732;2022-07-18T14:29:27;1.35;;;1.23;;
14992;SDS011;7592;51.088;13.732;2022-07-18T14:34:19;1.40;;;1.30;;
14992;SDS011;7592;51.088;13.732;2022-07-18T14:39:12;3.70;;;1.40;;
14992;SDS011;7592;51.088;13.732;2022-07-18T14:44:05;1.30;;;1.10;;
14992;SDS011;7592;51.088;13.732;2022-07-18T14:49:01;1.30;;;1.08;;
14992;SDS011;7592;51.088;13.732;2022-07-18T14:53:54;2.38;;;1.40;;
14992;SDS011;7592;51.088;13.732;2022-07-18T14:58:46;1.45;;;1.13;;
14992;SDS011;7592;51.088;13.732;2022-07-18T15:03:39;2.58;;;1.02;;
14992;SDS011;7592;51.088;13.732;2022-07-18T15:08:47;1.35;;;1.20;;
14992;SDS011;7592;51.088;13.732;2022-07-18T15:13:39;0.95;;;0.93;;
14992;SDS011;7592;51.088;13.732;2022-07-18T15:18:33;2.08;;;1.13;;
14992;SDS011;7592;51.088;13.732;2022-07-18T15:23:25;1.48;;;1.00;;
14992;SDS011;7592;51.088;13.732;2022-07-18T15:28:17;3.28;;;1.90;;
14992;SDS011;7592;51.088;13.732;2022-07-18T15:33:09;3.00;;;1.40;;
14992;SDS011;7592;51.088;13.732;2022-07-18T15:38:01;3.08;;;1.10;;
14992;SDS011;7592;51.088;13.732;2022-07-18T15:42:53;2.45;;;1.30;;
14992;SDS011;7592;51.088;13.732;2022-07-18T15:47:46;2.70;;;1.35;;
14992;SDS011;7592;51.088;13.732;2022-07-18T15:52:38;1.17;;;1.10;;
14992;SDS011;7592;51.088;13.732;2022-07-18T15:57:30;1.75;;;1.35;;
14992;SDS011;7592;51.088;13.732;2022-07-18T16:02:22;3.10;;;1.27;;
14992;SDS011;7592;51.088;13.732;2022-07-18T16:07:17;3.67;;;1.00;;
14992;SDS011;7592;51.088;13.732;2022-07-18T16:12:09;1.17;;;1.10;;
14992;SDS011;7592;51.088;13.732;2022-07-18T16:17:02;1.35;;;1.25;;
14992;SDS011;7592;51.088;13.732;2022-07-18T16:21:54;2.97;;;1.30;;
14992;SDS011;7592;51.088;13.732;2022-07-18T16:26:46;2.40;;;0.80;;
14992;SDS011;7592;51.088;13.732;2022-07-18T16:31:38;1.43;;;1.20;;
14992;SDS011;7592;51.088;13.732;2022-07-18T16:36:30;1.43;;;1.33;;
14992;SDS011;7592;51.088;13.732;2022-07-18T16:41:23;3.87;;;3.40;;
14992;SDS011;7592;51.088;13.732;2022-07-18T16:46:15;3.37;;;1.77;;
14992;SDS011;7592;51.088;13.732;2022-07-18T16:51:08;2.30;;;1.67;;
14992;SDS011;7592;51.088;13.732;2022-07-18T16:56:02;3.80;;;1.20;;
14992;SDS011;7592;51.088;13.732;2022-07-18T17:00:55;2.20;;;1.13;;
14992;SDS011;7592;51.088;13.732;2022-07-18T17:05:47;1.63;;;1.13;;
14992;SDS011;7592;51.088;13.732;2022-07-18T17:10:40;2.37;;;1.10;;
14992;SDS011;7592;51.088;13.732;2022-07-18T17:15:33;1.87;;;1.37;;
14992;SDS011;7592;51.088;13.732;2022-07-18T17:20:26;2.17;;;1.97;;
14992;SDS011;7592;51.088;13.732;2022-07-18T17:25:19;1.60;;;1.20;;
14992;SDS011;7592;51.088;13.732;2022-07-18T17:30:11;1.40;;;1.30;;
14992;SDS011;7592;51.088;13.732;2022-07-18T17:35:03;1.20;;;1.10;;
14992;SDS011;7592;51.088;13.732;2022-07-18T17:40:04;3.63;;;1.17;;
14992;SDS011;7592;51.088;13.732;2022-07-18T17:44:58;1.40;;;1.30;;
14992;SDS011;7592;51.088;13.732;2022-07-18T17:49:51;2.20;;;1.13;;
14992;SDS011;7592;51.088;13.732;2022-07-18T17:54:43;3.20;;;1.30;;
14992;SDS011;7592;51.088;13.732;2022-07-18T17:59:35;2.37;;;1.27;;
14992;SDS011;7592;51.088;13.732;2022-07-18T18:04:28;5.40;;;2.23;;
14992;SDS011;7592;51.088;13.732;2022-07-18T18:09:20;2.00;;;0.83;;
14992;SDS011;7592;51.088;13.732;2022-07-18T18:14:12;3.43;;;1.70;;
14992;SDS011;7592;51.088;13.732;2022-07-18T18:19:04;4.50;;;2.63;;
14992;SDS011;7592;51.088;13.732;2022-07-18T18:23:56;2.43;;;2.03;;
14992;SDS011;7592;51.088;13.732;2022-07-18T18:28:48;2.80;;;2.03;;
14992;SDS011;7592;51.088;13.732;2022-07-18T18:33:41;7.70;;;2.10;;
14992;SDS011;7592;51.088;13.732;2022-07-18T18:38:33;6.17;;;3.40;;
14992;SDS011;7592;51.088;13.732;2022-07-18T18:43:25;2.83;;;2.50;;
14992;SDS011;7592;51.088;13.732;2022-07-18T18:48:18;4.20;;;2.20;;
14992;SDS011;7592;51.088;13.732;2022-07-18T18:53:10;5.23;;;2.53;;
14992;SDS011;7592;51.088;13.732;2022-07-18T18:58:02;4.70;;;2.93;;
14992;SDS011;7592;51.088;13.732;2022-07-18T19:02:54;4.53;;;2.80;;
14992;SDS011;7592;51.088;13.732;2022-07-18T19:07:47;3.47;;;2.73;;
14992;SDS011;7592;51.088;13.732;2022-07-18T19:12:39;5.23;;;3.20;;
14992;SDS011;7592;51.088;13.732;2022-07-18T19:17:31;5.50;;;3.90;;
14992;SDS011;7592;51.088;13.732;2022-07-18T19:22:24;4.73;;;3.40;;
14992;SDS011;7592;51.088;13.732;2022-07-18T19:27:16;4.20;;;3.07;;
14992;SDS011;7592;51.088;13.732;2022-07-18T19:32:08;7.27;;;3.70;;
14992;SDS011;7592;51.088;13.732;2022-07-18T19:37:01;5.40;;;3.63;;
14992;SDS011;7592;51.088;13.732;2022-07-18T19:41:54;9.70;;;4.53;;
14992;SDS011;7592;51.088;13.732;2022-07-18T19:46:47;3.93;;;3.53;;
14992;SDS011;7592;51.088;13.732;2022-07-18T19:51:40;5.07;;;2.77;;
14992;SDS011;7592;51.088;13.732;2022-07-18T19:56:33;4.90;;;2.30;;
14992;SDS011;7592;51.088;13.732;2022-07-18T20:01:27;2.90;;;2.23;;
14992;SDS011;7592;51.088;13.732;2022-07-18T20:06:20;2.93;;;2.50;;
14992;SDS011;7592;51.088;13.732;2022-07-18T20:11:15;3.03;;;2.10;;
14992;SDS011;7592;51.088;13.732;2022-07-18T20:16:07;3.90;;;2.43;;
14992;SDS011;7592;51.088;13.732;2022-07-18T20:21:00;2.73;;;1.97;;
14992;SDS011;7592;51.088;13.732;2022-07-18T20:25:52;2.53;;;1.70;;
14992;SDS011;7592;51.088;13.732;2022-07-18T20:30:44;9.57;;;8.77;;
14992;SDS011;7592;51.088;13.732;2022-07-18T20:35:36;3.17;;;1.97;;
14992;SDS011;7592;51.088;13.732;2022-07-18T20:40:31;1.93;;;1.60;;
14992;SDS011;7592;51.088;13.732;2022-07-18T20:45:23;2.70;;;1.60;;
14992;SDS011;7592;51.088;13.732;2022-07-18T20:50:16;1.80;;;1.57;;
14992;SDS011;7592;51.088;13.732;2022-07-18T20:55:08;2.80;;;1.60;;
14992;SDS011;7592;51.088;13.732;2022-07-18T21:00:01;4.97;;;1.70;;
14992;SDS011;7592;51.088;13.732;2022-07-18T21:04:53;4.73;;;1.97;;
14992;SDS011;7592;51.088;13.732;2022-07-18T21:09:45;5.63;;;1.80;;
14992;SDS011;7592;51.088;13.732;2022-07-18T21:14:38;4.50;;;2.93;;
14992;SDS011;7592;51.088;13.732;2022-07-18T21:19:48;5.37;;;1.93;;
14992;SDS011;7592;51.088;13.732;2022-07-18T21:24:40;2.60;;;1.83;;
14992;SDS011;7592;51.088;13.732;2022-07-18T21:29:33;2.67;;;1.77;;
14992;SDS011;7592;51.088;13.732;2022-07-18T21:34:25;2.53;;;1.93;;
14992;SDS011;7592;51.088;13.732;2022-07-18T21:39:17;4.03;;;2.00;;
14992;SDS011;7592;51.088;13.732;2022-07-18T21:44:09;3.70;;;1.90;;
14992;SDS011;7592;51.088;13.732;2022-07-18T21:49:04;2.20;;;1.97;;
14992;SDS011;7592;51.088;13.732;2022-07-18T21:53:56;2.53;;;1.53;;
14992;SDS011;7592;51.088;13.732;2022-07-18T21:58:48;2.43;;;1.67;;
14992;SDS011;7592;51.088;13.732;2022-07-18T22:03:40;4.20;;;1.83;;
14992;SDS011;7592;51.088;13.732;2022-07-18T22:08:32;5.10;;;2.23;;
14992;SDS011;7592;51.088;13.732;2022-07-18T22:13:25;3.17;;;2.40;;
14992;SDS011;7592;51.088;13.732;2022-07-18T22:18:17;8.63;;;2.10;;
14992;SDS011;7592;51.088;13.732;2022-07-18T22:23:15;3.93;;;1.67;;
14992;SDS011;7592;51.088;13.732;2022-07-18T22:28:07;2.13;;;1.93;;
14992;SDS011;7592;51.088;13.732;2022-07-18T22:32:59;1.93;;;1.47;;
14992;SDS011;7592;51.088;13.732;2022-07-18T22:37:52;5.50;;;1.70;;
14992;SDS011;7592;51.088;13.732;2022-07-18T22:42:44;3.77;;;1.93;;
14992;SDS011;7592;51.088;13.732;2022-07-18T22:47:36;3.73;;;2.00;;
14992;SDS011;7592;51.088;13.732;2022-07-18T22:52:28;2.20;;;1.57;;
14992;SDS011;7592;51.088;13.732;2022-07-18T22:57:20;2.63;;;2.00;;
14992;SDS011;7592;51.088;13.732;2022-07-18T23:02:12;2.00;;;1.50;;
14992;SDS011;7592;51.088;13.732;2022-07-18T23:07:05;4.17;;;1.93;;
14992;SDS011;7592;51.088;13.732;2022-07-18T23:11:57;4.90;;;1.90;;
14992;SDS011;7592;51.088;13.732;2022-07-18T23:16:49;4.83;;;1.83;;
14992;SDS011;7592;51.088;13.732;2022-07-18T23:21:41;2.83;;;1.60;;
14992;SDS011;7592;51.088;13.732;2022-07-18T23:26:33;4.67;;;1.90;;
14992;SDS011;7592;51.088;13.732;2022-07-18T23:31:25;3.97;;;1.40;;
14992;SDS011;7592;51.088;13.732;2022-07-18T23:36:18;3.57;;;2.03;;
14992;SDS011;7592;51.088;13.732;2022-07-18T23:41:10;2.20;;;1.67;;
14992;SDS011;7592;51.088;13.732;2022-07-18T23:46:03;3.93;;;1.70;;
14992;SDS011;7592;51.088;13.732;2022-07-18T23:50:55;3.07;;;1.73;;
14992;SDS011;7592;51.088;13.732;2022-07-18T23:55:47;2.23;;;1.73;;
